Time,TemperatureF,DewpointF,PressureIn,WindDirection,WindDirectionDegrees,WindSpeedMPH,WindSpeedGustMPH,Humidity,HourlyPrecipIn,Conditions,Clouds,dailyrainin,SoftwareType,DateUTC
2013-04-25 00:00:00,66.3,55.4,29.95,NNW,338,2.0,11.0,68,0.00,,---,0.00,VWS V14.01,2013-04-25 04:00:00,
2013-04-25 00:30:00,63.2,51.7,29.97,NNW,338,2.0,23.0,66,0.00,,---,0.00,VWS V14.01,2013-04-25 04:30:00,
2013-04-25 01:00:00,60.9,46.9,30.00,NNW,338,2.0,9.0,60,0.00,,---,0.00,VWS V14.01,2013-04-25 05:00:00,
2013-04-25 01:30:00,57.9,43.7,30.02,NNW,338,2.0,11.0,59,0.00,,---,0.00,VWS V14.01,2013-04-25 05:30:00,
2013-04-25 02:00:00,56.7,42.5,30.03,North,0,2.0,9.0,59,0.00,,---,0.00,VWS V14.01,2013-04-25 06:00:00,
2013-04-25 02:30:00,55.5,42.7,30.05,North,0,2.0,13.0,62,0.00,,---,0.00,VWS V14.01,2013-04-25 06:30:00,
2013-04-25 03:00:00,50.9,45.0,30.06,NNW,338,1.0,5.0,80,0.01,,---,0.01,VWS V14.01,2013-04-25 07:00:00,
2013-04-25 03:30:00,50.9,40.3,30.08,NNW,338,2.0,9.0,67,0.01,,---,0.01,VWS V14.01,2013-04-25 07:30:00,
2013-04-25 04:00:00,50.6,38.9,30.10,NNW,338,2.0,11.0,64,0.01,,---,0.01,VWS V14.01,2013-04-25 08:00:00,
2013-04-25 04:30:00,50.1,38.8,30.13,North,0,2.0,8.0,65,0.00,,---,0.01,VWS V14.01,2013-04-25 08:30:00,
2013-04-25 05:00:00,49.3,37.2,30.15,North,0,2.0,11.0,63,0.00,,---,0.01,VWS V14.01,2013-04-25 09:00:00,
2013-04-25 05:30:00,48.3,35.5,30.17,NNW,338,2.0,7.0,61,0.00,,---,0.01,VWS V14.01,2013-04-25 09:30:00,
2013-04-25 06:00:00,47.3,35.0,30.20,North,0,1.0,7.0,62,0.00,,---,0.01,VWS V14.01,2013-04-25 10:00:00,
2013-04-25 06:30:00,46.4,35.3,30.21,NNW,338,0.0,4.0,65,0.00,,---,0.01,VWS V14.01,2013-04-25 10:30:00,
2013-04-25 07:00:00,46.4,35.3,30.23,North,0,1.0,4.0,65,0.00,,---,0.01,VWS V14.01,2013-04-25 11:00:00,
2013-04-25 07:30:00,47.4,35.0,30.24,NW,315,1.0,5.0,62,0.00,,---,0.01,VWS V14.01,2013-04-25 11:30:00,
2013-04-25 08:00:00,49.0,36.6,30.24,NNW,338,1.0,7.0,62,0.00,,---,0.01,VWS V14.01,2013-04-25 12:00:00,
2013-04-25 08:30:00,50.5,35.0,30.25,NNW,338,1.0,6.0,55,0.00,,---,0.01,VWS V14.01,2013-04-25 12:30:00,
2013-04-25 09:00:00,51.6,36.0,30.26,North,0,1.0,7.0,55,0.00,,---,0.01,VWS V14.01,2013-04-25 13:00:00,
2013-04-25 09:30:00,52.4,36.7,30.26,NNW,338,1.0,8.0,55,0.00,,---,0.01,VWS V14.01,2013-04-25 13:30:00,
2013-04-25 10:00:00,53.1,34.5,30.26,NNW,338,1.0,7.0,49,0.00,,---,0.01,VWS V14.01,2013-04-25 14:00:00,
2013-04-25 10:30:00,55.0,35.2,30.26,NNW,338,1.0,5.0,47,0.00,,---,0.01,VWS V14.01,2013-04-25 14:30:00,
2013-04-25 11:00:00,56.3,36.9,30.27,NNW,338,1.0,5.0,48,0.00,,---,0.01,VWS V14.01,2013-04-25 15:00:00,
2013-04-25 11:30:00,58.0,35.7,30.27,WNW,292,1.0,8.0,43,0.00,,---,0.01,VWS V14.01,2013-04-25 15:30:00,
2013-04-25 12:00:00,58.8,37.0,30.25,NNW,338,1.0,4.0,44,0.00,,---,0.01,VWS V14.01,2013-04-25 16:00:00,
2013-04-25 12:30:00,58.4,34.8,30.25,North,0,1.0,5.0,41,0.00,,---,0.01,VWS V14.01,2013-04-25 16:30:00,
2013-04-25 13:00:00,60.4,34.0,30.24,WSW,248,1.0,5.0,37,0.00,,---,0.01,VWS V14.01,2013-04-25 17:00:00,
2013-04-25 13:30:00,60.3,35.9,30.23,WNW,292,1.0,6.0,40,0.00,,---,0.01,VWS V14.01,2013-04-25 17:30:00,
2013-04-25 14:00:00,64.2,33.8,30.22,West,270,1.0,5.0,32,0.00,,---,0.01,VWS V14.01,2013-04-25 18:00:00,
2013-04-25 14:30:00,63.4,33.8,30.22,NNW,338,1.0,5.0,33,0.00,,---,0.01,VWS V14.01,2013-04-25 18:30:00,
2013-04-25 15:00:00,63.2,32.1,30.21,North,0,1.0,4.0,31,0.00,,---,0.01,VWS V14.01,2013-04-25 19:00:00,
2013-04-25 15:30:00,63.8,33.4,30.20,North,0,1.0,4.0,32,0.00,,---,0.01,VWS V14.01,2013-04-25 19:30:00,
2013-04-25 16:00:00,65.0,34.5,30.20,West,270,1.0,4.0,32,0.00,,---,0.01,VWS V14.01,2013-04-25 20:00:00,
2013-04-25 16:30:00,65.5,30.7,30.19,WNW,292,1.0,5.0,27,0.00,,---,0.01,VWS V14.01,2013-04-25 20:30:00,
2013-04-25 17:00:00,63.6,29.9,30.19,West,270,1.0,3.0,28,0.00,,---,0.01,VWS V14.01,2013-04-25 21:00:00,
2013-04-25 17:30:00,63.9,30.2,30.19,West,270,0.0,4.0,28,0.00,,---,0.01,VWS V14.01,2013-04-25 21:30:00,
2013-04-25 18:00:00,63.2,37.2,30.20,WNW,292,0.0,3.0,38,0.00,,---,0.01,VWS V14.01,2013-04-25 22:00:00,
2013-04-25 18:30:00,60.8,38.2,30.20,East,90,1.0,4.0,43,0.00,,---,0.01,VWS V14.01,2013-04-25 22:30:00,
2013-04-25 19:00:00,59.5,39.8,30.21,ESE,112,1.0,4.0,48,0.00,,---,0.01,VWS V14.01,2013-04-25 23:00:00,
2013-04-25 19:30:00,57.4,38.9,30.22,East,90,0.0,3.0,50,0.00,,---,0.01,VWS V14.01,2013-04-25 23:30:00,
2013-04-25 20:00:00,55.7,38.8,30.22,ESE,112,0.0,2.0,53,0.00,,---,0.01,VWS V14.01,2013-04-26 00:00:00,
2013-04-25 20:30:00,53.8,38.9,30.22,East,90,0.0,3.0,57,0.00,,---,0.01,VWS V14.01,2013-04-26 00:30:00,
2013-04-25 21:00:00,52.5,39.5,30.24,ESE,112,0.0,1.0,61,0.00,,---,0.01,VWS V14.01,2013-04-26 01:00:00,
2013-04-25 21:30:00,50.5,40.0,30.25,ESE,112,0.0,0.0,67,0.00,,---,0.01,VWS V14.01,2013-04-26 01:30:00,
2013-04-25 22:00:00,49.0,40.4,30.26,ESE,112,0.0,0.0,72,0.00,,---,0.01,VWS V14.01,2013-04-26 02:00:00,
2013-04-25 22:30:00,47.5,40.7,30.27,ESE,112,0.0,0.0,77,0.00,,---,0.01,VWS V14.01,2013-04-26 02:30:00,
2013-04-25 23:00:00,47.3,41.1,30.28,ESE,112,0.0,0.0,79,0.00,,---,0.01,VWS V14.01,2013-04-26 03:00:00,
2013-04-25 23:30:00,47.0,41.2,30.29,ESE,112,0.0,0.0,80,0.00,,---,0.01,VWS V14.01,2013-04-26 03:30:00,